<?xml version="1.0" encoding="UTF-8" standalone="no" ?>
<gpx xmlns="http://www.topografix.com/GPX/1/1" xmlns:xsi="http://www.w3.org/2001/XMLSchema-instance" xsi:schemaLocation="http://www.topografix.com/GPX/1/1 http://www.topografix.com/GPX/1/1/gpx.xsd" version="1.1" creator="VisuGPX - https://www.visugpx.com">
  <metadata>
    <name>Villeurbanne</name>
  </metadata>
  <trk>
    <name><![CDATA[Villeurbanne]]></name>
    <trkseg>
      <trkpt lat="45.78228" lon="4.87669">
        <ele>180</ele>
        <time>2022-01-17T16:58:11.070Z</time>
      </trkpt>
      <trkpt lat="45.78228" lon="4.87669">
        <ele>180</ele>
        <time>2022-01-17T16:58:11.171Z</time>
      </trkpt>
      <trkpt lat="45.78225" lon="4.87655">
        <ele>180</ele>
        <time>2022-01-17T16:58:22.210Z</time>
      </trkpt>
      <trkpt lat="45.78223" lon="4.87639">
        <ele>181</ele>
        <time>2022-01-17T16:58:27.208Z</time>
      </trkpt>
      <trkpt lat="45.7822" lon="4.87624">
        <ele>182</ele>
        <time>2022-01-17T16:58:31.212Z</time>
      </trkpt>
      <trkpt lat="45.78216" lon="4.87611">
        <ele>182</ele>
        <time>2022-01-17T16:58:35.268Z</time>
      </trkpt>
      <trkpt lat="45.78214" lon="4.87597">
        <ele>183</ele>
        <time>2022-01-17T16:58:38.208Z</time>
      </trkpt>
      <trkpt lat="45.78211" lon="4.87582">
        <ele>184</ele>
        <time>2022-01-17T16:58:42.198Z</time>
      </trkpt>
      <trkpt lat="45.78208" lon="4.87565">
        <ele>184</ele>
        <time>2022-01-17T16:58:46.190Z</time>
      </trkpt>
      <trkpt lat="45.78204" lon="4.87552">
        <ele>185</ele>
        <time>2022-01-17T16:58:49.211Z</time>
      </trkpt>
      <trkpt lat="45.78202" lon="4.87536">
        <ele>186</ele>
        <time>2022-01-17T16:58:54.208Z</time>
      </trkpt>
      <trkpt lat="45.78197" lon="4.8752">
        <ele>187</ele>
        <time>2022-01-17T16:58:58.204Z</time>
      </trkpt>
      <trkpt lat="45.78193" lon="4.87507">
        <ele>187</ele>
        <time>2022-01-17T16:59:02.207Z</time>
      </trkpt>
      <trkpt lat="45.7819" lon="4.8749">
        <ele>187</ele>
        <time>2022-01-17T16:59:06.211Z</time>
      </trkpt>
      <trkpt lat="45.78186" lon="4.87477">
        <ele>186</ele>
        <time>2022-01-17T16:59:09.199Z</time>
      </trkpt>
      <trkpt lat="45.78181" lon="4.87462">
        <ele>185</ele>
        <time>2022-01-17T16:59:13.209Z</time>
      </trkpt>
      <trkpt lat="45.78151" lon="4.87126">
        <ele>185</ele>
        <time>2022-01-17T17:01:18.906Z</time>
      </trkpt>
      <trkpt lat="45.78174" lon="4.87085">
        <ele>183</ele>
        <time>2022-01-17T17:01:21.903Z</time>
      </trkpt>
      <trkpt lat="45.7816" lon="4.87049">
        <ele>181</ele>
        <time>2022-01-17T17:01:28.928Z</time>
      </trkpt>
      <trkpt lat="45.78161" lon="4.8702">
        <ele>180</ele>
        <time>2022-01-17T17:01:37.186Z</time>
      </trkpt>
      <trkpt lat="45.78165" lon="4.87002">
        <ele>178</ele>
        <time>2022-01-17T17:01:44.186Z</time>
      </trkpt>
      <trkpt lat="45.78166" lon="4.86989">
        <ele>177</ele>
        <time>2022-01-17T17:01:50.206Z</time>
      </trkpt>
      <trkpt lat="45.78167" lon="4.86975">
        <ele>177</ele>
        <time>2022-01-17T17:01:54.208Z</time>
      </trkpt>
      <trkpt lat="45.78168" lon="4.8696">
        <ele>176</ele>
        <time>2022-01-17T17:01:58.158Z</time>
      </trkpt>
      <trkpt lat="45.78167" lon="4.86947">
        <ele>176</ele>
        <time>2022-01-17T17:02:02.177Z</time>
      </trkpt>
      <trkpt lat="45.78166" lon="4.86931">
        <ele>177</ele>
        <time>2022-01-17T17:02:07.191Z</time>
      </trkpt>
      <trkpt lat="45.78162" lon="4.86918">
        <ele>177</ele>
        <time>2022-01-17T17:02:12.196Z</time>
      </trkpt>
      <trkpt lat="45.78157" lon="4.86903">
        <ele>177</ele>
        <time>2022-01-17T17:02:17.206Z</time>
      </trkpt>
      <trkpt lat="45.78153" lon="4.86888">
        <ele>177</ele>
        <time>2022-01-17T17:02:21.179Z</time>
      </trkpt>
      <trkpt lat="45.78151" lon="4.86874">
        <ele>176</ele>
        <time>2022-01-17T17:02:25.199Z</time>
      </trkpt>
      <trkpt lat="45.78149" lon="4.8686">
        <ele>176</ele>
        <time>2022-01-17T17:02:30.191Z</time>
      </trkpt>
      <trkpt lat="45.78148" lon="4.86844">
        <ele>177</ele>
        <time>2022-01-17T17:02:35.197Z</time>
      </trkpt>
      <trkpt lat="45.78144" lon="4.86831">
        <ele>177</ele>
        <time>2022-01-17T17:02:39.191Z</time>
      </trkpt>
      <trkpt lat="45.78139" lon="4.86817">
        <ele>178</ele>
        <time>2022-01-17T17:02:44.198Z</time>
      </trkpt>
      <trkpt lat="45.78136" lon="4.86804">
        <ele>178</ele>
        <time>2022-01-17T17:02:48.206Z</time>
      </trkpt>
      <trkpt lat="45.78133" lon="4.86792">
        <ele>179</ele>
        <time>2022-01-17T17:02:52.212Z</time>
      </trkpt>
      <trkpt lat="45.78129" lon="4.86778">
        <ele>179</ele>
        <time>2022-01-17T17:02:56.210Z</time>
      </trkpt>
      <trkpt lat="45.78127" lon="4.86763">
        <ele>179</ele>
        <time>2022-01-17T17:03:01.208Z</time>
      </trkpt>
      <trkpt lat="45.78123" lon="4.86751">
        <ele>179</ele>
        <time>2022-01-17T17:03:06.209Z</time>
      </trkpt>
      <trkpt lat="45.78118" lon="4.86738">
        <ele>179</ele>
        <time>2022-01-17T17:03:12.214Z</time>
      </trkpt>
      <trkpt lat="45.78116" lon="4.86724">
        <ele>179</ele>
        <time>2022-01-17T17:03:17.212Z</time>
      </trkpt>
      <trkpt lat="45.78113" lon="4.86711">
        <ele>178</ele>
        <time>2022-01-17T17:03:21.262Z</time>
      </trkpt>
      <trkpt lat="45.78108" lon="4.867">
        <ele>178</ele>
        <time>2022-01-17T17:03:26.222Z</time>
      </trkpt>
      <trkpt lat="45.78104" lon="4.86687">
        <ele>178</ele>
        <time>2022-01-17T17:03:30.208Z</time>
      </trkpt>
      <trkpt lat="45.781" lon="4.86673">
        <ele>179</ele>
        <time>2022-01-17T17:03:34.213Z</time>
      </trkpt>
      <trkpt lat="45.78097" lon="4.86659">
        <ele>179</ele>
        <time>2022-01-17T17:03:38.210Z</time>
      </trkpt>
      <trkpt lat="45.78093" lon="4.86644">
        <ele>181</ele>
        <time>2022-01-17T17:03:43.214Z</time>
      </trkpt>
      <trkpt lat="45.78033" lon="4.85983">
        <ele>182</ele>
        <time>2022-01-17T17:07:57.433Z</time>
      </trkpt>
      <trkpt lat="45.78025" lon="4.85947">
        <ele>183</ele>
        <time>2022-01-17T17:08:00.426Z</time>
      </trkpt>
      <trkpt lat="45.78001" lon="4.85917">
        <ele>183</ele>
        <time>2022-01-17T17:08:04.202Z</time>
      </trkpt>
      <trkpt lat="45.7797" lon="4.85912">
        <ele>183</ele>
        <time>2022-01-17T17:08:10.203Z</time>
      </trkpt>
      <trkpt lat="45.77992" lon="4.85881">
        <ele>181</ele>
        <time>2022-01-17T17:08:23.244Z</time>
      </trkpt>
      <trkpt lat="45.78013" lon="4.85872">
        <ele>177</ele>
        <time>2022-01-17T17:08:34.272Z</time>
      </trkpt>
      <trkpt lat="45.78028" lon="4.85869">
        <ele>174</ele>
        <time>2022-01-17T17:08:40.243Z</time>
      </trkpt>
      <trkpt lat="45.78038" lon="4.8587">
        <ele>173</ele>
        <time>2022-01-17T17:08:44.211Z</time>
      </trkpt>
      <trkpt lat="45.78048" lon="4.85871">
        <ele>171</ele>
        <time>2022-01-17T17:08:48.211Z</time>
      </trkpt>
      <trkpt lat="45.78058" lon="4.85871">
        <ele>169</ele>
        <time>2022-01-17T17:08:53.210Z</time>
      </trkpt>
      <trkpt lat="45.78294" lon="4.85732">
        <ele>169</ele>
        <time>2022-01-17T17:10:37.574Z</time>
      </trkpt>
      <trkpt lat="45.78308" lon="4.85735">
        <ele>168</ele>
        <time>2022-01-17T17:10:45.585Z</time>
      </trkpt>
      <trkpt lat="45.78316" lon="4.85759">
        <ele>167</ele>
        <time>2022-01-17T17:10:48.596Z</time>
      </trkpt>
      <trkpt lat="45.78328" lon="4.85747">
        <ele>165</ele>
        <time>2022-01-17T17:11:01.596Z</time>
      </trkpt>
      <trkpt lat="45.78337" lon="4.85737">
        <ele>165</ele>
        <time>2022-01-17T17:11:05.211Z</time>
      </trkpt>
      <trkpt lat="45.78345" lon="4.8573">
        <ele>165</ele>
        <time>2022-01-17T17:11:09.206Z</time>
      </trkpt>
      <trkpt lat="45.78353" lon="4.85722">
        <ele>164</ele>
        <time>2022-01-17T17:11:14.210Z</time>
      </trkpt>
      <trkpt lat="45.78361" lon="4.85714">
        <ele>164</ele>
        <time>2022-01-17T17:11:22.205Z</time>
      </trkpt>
      <trkpt lat="45.78369" lon="4.85705">
        <ele>165</ele>
        <time>2022-01-17T17:11:28.211Z</time>
      </trkpt>
      <trkpt lat="45.78376" lon="4.85695">
        <ele>165</ele>
        <time>2022-01-17T17:11:33.258Z</time>
      </trkpt>
      <trkpt lat="45.78383" lon="4.85685">
        <ele>166</ele>
        <time>2022-01-17T17:11:37.181Z</time>
      </trkpt>
      <trkpt lat="45.78382" lon="4.85569">
        <ele>166</ele>
        <time>2022-01-17T17:12:49.790Z</time>
      </trkpt>
      <trkpt lat="45.78384" lon="4.85521">
        <ele>166</ele>
        <time>2022-01-17T17:12:52.309Z</time>
      </trkpt>
      <trkpt lat="45.78357" lon="4.85484">
        <ele>167</ele>
        <time>2022-01-17T17:12:58.335Z</time>
      </trkpt>
      <trkpt lat="45.78346" lon="4.85456">
        <ele>168</ele>
        <time>2022-01-17T17:13:10.202Z</time>
      </trkpt>
      <trkpt lat="45.78337" lon="4.85442">
        <ele>169</ele>
        <time>2022-01-17T17:13:18.198Z</time>
      </trkpt>
      <trkpt lat="45.78331" lon="4.85431">
        <ele>169</ele>
        <time>2022-01-17T17:13:24.211Z</time>
      </trkpt>
      <trkpt lat="45.78324" lon="4.85421">
        <ele>169</ele>
        <time>2022-01-17T17:13:29.199Z</time>
      </trkpt>
      <trkpt lat="45.78316" lon="4.85412">
        <ele>169</ele>
        <time>2022-01-17T17:13:34.210Z</time>
      </trkpt>
      <trkpt lat="45.78309" lon="4.85404">
        <ele>169</ele>
        <time>2022-01-17T17:13:39.205Z</time>
      </trkpt>
      <trkpt lat="45.78302" lon="4.85394">
        <ele>169</ele>
        <time>2022-01-17T17:13:44.247Z</time>
      </trkpt>
      <trkpt lat="45.78297" lon="4.85383">
        <ele>170</ele>
        <time>2022-01-17T17:13:49.196Z</time>
      </trkpt>
      <trkpt lat="45.77763" lon="4.84536">
        <ele>169</ele>
        <time>2022-01-17T17:20:33.436Z</time>
      </trkpt>
      <trkpt lat="45.7778" lon="4.84497">
        <ele>168</ele>
        <time>2022-01-17T17:20:34.937Z</time>
      </trkpt>
      <trkpt lat="45.77755" lon="4.84529">
        <ele>158</ele>
        <time>2022-01-17T17:20:44.242Z</time>
      </trkpt>
      <trkpt lat="45.77735" lon="4.84551">
        <ele>154</ele>
        <time>2022-01-17T17:20:52.191Z</time>
      </trkpt>
      <trkpt lat="45.77726" lon="4.84542">
        <ele>154</ele>
        <time>2022-01-17T17:21:04.204Z</time>
      </trkpt>
      <trkpt lat="45.77728" lon="4.84528">
        <ele>154</ele>
        <time>2022-01-17T17:21:11.195Z</time>
      </trkpt>
      <trkpt lat="45.77732" lon="4.84515">
        <ele>154</ele>
        <time>2022-01-17T17:21:17.159Z</time>
      </trkpt>
      <trkpt lat="45.77736" lon="4.84504">
        <ele>167</ele>
        <time>2022-01-17T17:21:31.201Z</time>
      </trkpt>
      <trkpt lat="45.77736" lon="4.84501">
        <ele>168</ele>
        <time>2022-01-17T17:21:54.199Z</time>
      </trkpt>
      <trkpt lat="45.77736" lon="4.84501">
        <ele>168</ele>
        <time>2022-01-17T17:22:24.213Z</time>
      </trkpt>
      <trkpt lat="45.77705" lon="4.84544">
        <ele>167</ele>
        <time>2022-01-17T17:22:53.961Z</time>
      </trkpt>
      <trkpt lat="45.77696" lon="4.84562">
        <ele>167</ele>
        <time>2022-01-17T17:22:59.477Z</time>
      </trkpt>
      <trkpt lat="45.77688" lon="4.84573">
        <ele>166</ele>
        <time>2022-01-17T17:23:05.179Z</time>
      </trkpt>
      <trkpt lat="45.77682" lon="4.84587">
        <ele>166</ele>
        <time>2022-01-17T17:23:11.174Z</time>
      </trkpt>
      <trkpt lat="45.77676" lon="4.84598">
        <ele>165</ele>
        <time>2022-01-17T17:23:16.172Z</time>
      </trkpt>
      <trkpt lat="45.77669" lon="4.84609">
        <ele>165</ele>
        <time>2022-01-17T17:23:22.179Z</time>
      </trkpt>
      <trkpt lat="45.77665" lon="4.84622">
        <ele>164</ele>
        <time>2022-01-17T17:23:27.188Z</time>
      </trkpt>
      <trkpt lat="45.77663" lon="4.84636">
        <ele>164</ele>
        <time>2022-01-17T17:23:31.178Z</time>
      </trkpt>
      <trkpt lat="45.77657" lon="4.84646">
        <ele>164</ele>
        <time>2022-01-17T17:23:34.176Z</time>
      </trkpt>
      <trkpt lat="45.77652" lon="4.84657">
        <ele>165</ele>
        <time>2022-01-17T17:23:37.178Z</time>
      </trkpt>
      <trkpt lat="45.77648" lon="4.84672">
        <ele>165</ele>
        <time>2022-01-17T17:23:41.182Z</time>
      </trkpt>
      <trkpt lat="45.77643" lon="4.84685">
        <ele>166</ele>
        <time>2022-01-17T17:23:45.170Z</time>
      </trkpt>
      <trkpt lat="45.77637" lon="4.84698">
        <ele>168</ele>
        <time>2022-01-17T17:23:49.188Z</time>
      </trkpt>
      <trkpt lat="45.77629" lon="4.84706">
        <ele>169</ele>
        <time>2022-01-17T17:23:52.178Z</time>
      </trkpt>
      <trkpt lat="45.77619" lon="4.84717">
        <ele>170</ele>
        <time>2022-01-17T17:23:56.181Z</time>
      </trkpt>
      <trkpt lat="45.7761" lon="4.84727">
        <ele>170</ele>
        <time>2022-01-17T17:24:00.171Z</time>
      </trkpt>
      <trkpt lat="45.77605" lon="4.84741">
        <ele>171</ele>
        <time>2022-01-17T17:24:05.176Z</time>
      </trkpt>
      <trkpt lat="45.77602" lon="4.84754">
        <ele>172</ele>
        <time>2022-01-17T17:24:11.171Z</time>
      </trkpt>
      <trkpt lat="45.77599" lon="4.84767">
        <ele>173</ele>
        <time>2022-01-17T17:24:16.169Z</time>
      </trkpt>
      <trkpt lat="45.77595" lon="4.8478">
        <ele>174</ele>
        <time>2022-01-17T17:24:21.177Z</time>
      </trkpt>
      <trkpt lat="45.77588" lon="4.84789">
        <ele>174</ele>
        <time>2022-01-17T17:24:24.177Z</time>
      </trkpt>
      <trkpt lat="45.77581" lon="4.84798">
        <ele>175</ele>
        <time>2022-01-17T17:24:27.177Z</time>
      </trkpt>
      <trkpt lat="45.77574" lon="4.84811">
        <ele>175</ele>
        <time>2022-01-17T17:24:31.180Z</time>
      </trkpt>
      <trkpt lat="45.77569" lon="4.84824">
        <ele>175</ele>
        <time>2022-01-17T17:24:36.178Z</time>
      </trkpt>
      <trkpt lat="45.77563" lon="4.84836">
        <ele>175</ele>
        <time>2022-01-17T17:24:41.179Z</time>
      </trkpt>
      <trkpt lat="45.77558" lon="4.84848">
        <ele>176</ele>
        <time>2022-01-17T17:24:45.176Z</time>
      </trkpt>
      <trkpt lat="45.77551" lon="4.8486">
        <ele>177</ele>
        <time>2022-01-17T17:24:50.171Z</time>
      </trkpt>
      <trkpt lat="45.77546" lon="4.84873">
        <ele>178</ele>
        <time>2022-01-17T17:24:55.186Z</time>
      </trkpt>
      <trkpt lat="45.7754" lon="4.84887">
        <ele>178</ele>
        <time>2022-01-17T17:25:00.184Z</time>
      </trkpt>
      <trkpt lat="45.77534" lon="4.84899">
        <ele>177</ele>
        <time>2022-01-17T17:25:04.189Z</time>
      </trkpt>
      <trkpt lat="45.7753" lon="4.8491">
        <ele>176</ele>
        <time>2022-01-17T17:25:08.183Z</time>
      </trkpt>
      <trkpt lat="45.77525" lon="4.84922">
        <ele>175</ele>
        <time>2022-01-17T17:25:12.191Z</time>
      </trkpt>
      <trkpt lat="45.7752" lon="4.84935">
        <ele>173</ele>
        <time>2022-01-17T17:25:16.191Z</time>
      </trkpt>
      <trkpt lat="45.77515" lon="4.8495">
        <ele>172</ele>
        <time>2022-01-17T17:25:21.191Z</time>
      </trkpt>
      <trkpt lat="45.7751" lon="4.84964">
        <ele>171</ele>
        <time>2022-01-17T17:25:25.187Z</time>
      </trkpt>
      <trkpt lat="45.77505" lon="4.84977">
        <ele>170</ele>
        <time>2022-01-17T17:25:29.189Z</time>
      </trkpt>
      <trkpt lat="45.77501" lon="4.84991">
        <ele>168</ele>
        <time>2022-01-17T17:25:34.191Z</time>
      </trkpt>
      <trkpt lat="45.77494" lon="4.85005">
        <ele>167</ele>
        <time>2022-01-17T17:25:39.177Z</time>
      </trkpt>
      <trkpt lat="45.77487" lon="4.85018">
        <ele>166</ele>
        <time>2022-01-17T17:25:43.187Z</time>
      </trkpt>
      <trkpt lat="45.7748" lon="4.85027">
        <ele>165</ele>
        <time>2022-01-17T17:25:46.182Z</time>
      </trkpt>
      <trkpt lat="45.77475" lon="4.85038">
        <ele>165</ele>
        <time>2022-01-17T17:25:49.199Z</time>
      </trkpt>
      <trkpt lat="45.77469" lon="4.85051">
        <ele>165</ele>
        <time>2022-01-17T17:25:53.189Z</time>
      </trkpt>
      <trkpt lat="45.77467" lon="4.85065">
        <ele>166</ele>
        <time>2022-01-17T17:25:57.196Z</time>
      </trkpt>
      <trkpt lat="45.7746" lon="4.85078">
        <ele>166</ele>
        <time>2022-01-17T17:26:01.169Z</time>
      </trkpt>
      <trkpt lat="45.77454" lon="4.85091">
        <ele>167</ele>
        <time>2022-01-17T17:26:05.184Z</time>
      </trkpt>
      <trkpt lat="45.77448" lon="4.85103">
        <ele>167</ele>
        <time>2022-01-17T17:26:09.190Z</time>
      </trkpt>
      <trkpt lat="45.77441" lon="4.85115">
        <ele>167</ele>
        <time>2022-01-17T17:26:13.199Z</time>
      </trkpt>
      <trkpt lat="45.77433" lon="4.85126">
        <ele>168</ele>
        <time>2022-01-17T17:26:17.209Z</time>
      </trkpt>
      <trkpt lat="45.77427" lon="4.85137">
        <ele>168</ele>
        <time>2022-01-17T17:26:21.191Z</time>
      </trkpt>
      <trkpt lat="45.77419" lon="4.85148">
        <ele>168</ele>
        <time>2022-01-17T17:26:25.192Z</time>
      </trkpt>
      <trkpt lat="45.77411" lon="4.85159">
        <ele>168</ele>
        <time>2022-01-17T17:26:29.198Z</time>
      </trkpt>
      <trkpt lat="45.77403" lon="4.85165">
        <ele>169</ele>
        <time>2022-01-17T17:26:33.193Z</time>
      </trkpt>
      <trkpt lat="45.77393" lon="4.85171">
        <ele>169</ele>
        <time>2022-01-17T17:26:38.195Z</time>
      </trkpt>
      <trkpt lat="45.77382" lon="4.85173">
        <ele>169</ele>
        <time>2022-01-17T17:26:43.192Z</time>
      </trkpt>
      <trkpt lat="45.77372" lon="4.85177">
        <ele>169</ele>
        <time>2022-01-17T17:26:48.197Z</time>
      </trkpt>
      <trkpt lat="45.77364" lon="4.85182">
        <ele>169</ele>
        <time>2022-01-17T17:26:53.203Z</time>
      </trkpt>
      <trkpt lat="45.77357" lon="4.85193">
        <ele>169</ele>
        <time>2022-01-17T17:26:58.195Z</time>
      </trkpt>
      <trkpt lat="45.77356" lon="4.85207">
        <ele>169</ele>
        <time>2022-01-17T17:27:02.188Z</time>
      </trkpt>
      <trkpt lat="45.77357" lon="4.85222">
        <ele>169</ele>
        <time>2022-01-17T17:27:06.151Z</time>
      </trkpt>
      <trkpt lat="45.77353" lon="4.85234">
        <ele>170</ele>
        <time>2022-01-17T17:27:11.205Z</time>
      </trkpt>
      <trkpt lat="45.77346" lon="4.85245">
        <ele>171</ele>
        <time>2022-01-17T17:27:20.199Z</time>
      </trkpt>
      <trkpt lat="45.77346" lon="4.85248">
        <ele>172</ele>
        <time>2022-01-17T17:27:47.213Z</time>
      </trkpt>
      <trkpt lat="45.77346" lon="4.85248">
        <ele>172</ele>
        <time>2022-01-17T17:28:06.216Z</time>
      </trkpt>
      <trkpt lat="45.77417" lon="4.8553">
        <ele>170</ele>
        <time>2022-01-17T17:29:39.935Z</time>
      </trkpt>
      <trkpt lat="45.77406" lon="4.85552">
        <ele>171</ele>
        <time>2022-01-17T17:29:44.461Z</time>
      </trkpt>
      <trkpt lat="45.77394" lon="4.85569">
        <ele>171</ele>
        <time>2022-01-17T17:29:48.447Z</time>
      </trkpt>
      <trkpt lat="45.77386" lon="4.85589">
        <ele>170</ele>
        <time>2022-01-17T17:29:55.195Z</time>
      </trkpt>
      <trkpt lat="45.77386" lon="4.85611">
        <ele>170</ele>
        <time>2022-01-17T17:30:01.160Z</time>
      </trkpt>
      <trkpt lat="45.77388" lon="4.85628">
        <ele>169</ele>
        <time>2022-01-17T17:30:05.186Z</time>
      </trkpt>
      <trkpt lat="45.77391" lon="4.85643">
        <ele>169</ele>
        <time>2022-01-17T17:30:09.190Z</time>
      </trkpt>
      <trkpt lat="45.7739" lon="4.8566">
        <ele>168</ele>
        <time>2022-01-17T17:30:13.176Z</time>
      </trkpt>
      <trkpt lat="45.77393" lon="4.85675">
        <ele>168</ele>
        <time>2022-01-17T17:30:17.183Z</time>
      </trkpt>
      <trkpt lat="45.77394" lon="4.85689">
        <ele>167</ele>
        <time>2022-01-17T17:30:21.188Z</time>
      </trkpt>
      <trkpt lat="45.77397" lon="4.85704">
        <ele>167</ele>
        <time>2022-01-17T17:30:26.198Z</time>
      </trkpt>
      <trkpt lat="45.77399" lon="4.85718">
        <ele>166</ele>
        <time>2022-01-17T17:30:31.187Z</time>
      </trkpt>
      <trkpt lat="45.77404" lon="4.85731">
        <ele>165</ele>
        <time>2022-01-17T17:30:35.197Z</time>
      </trkpt>
      <trkpt lat="45.77407" lon="4.85744">
        <ele>165</ele>
        <time>2022-01-17T17:30:39.190Z</time>
      </trkpt>
      <trkpt lat="45.77413" lon="4.85758">
        <ele>164</ele>
        <time>2022-01-17T17:30:43.202Z</time>
      </trkpt>
      <trkpt lat="45.77421" lon="4.85769">
        <ele>164</ele>
        <time>2022-01-17T17:30:47.198Z</time>
      </trkpt>
      <trkpt lat="45.77428" lon="4.85778">
        <ele>163</ele>
        <time>2022-01-17T17:30:51.190Z</time>
      </trkpt>
      <trkpt lat="45.77438" lon="4.85786">
        <ele>162</ele>
        <time>2022-01-17T17:30:56.192Z</time>
      </trkpt>
      <trkpt lat="45.77447" lon="4.8579">
        <ele>162</ele>
        <time>2022-01-17T17:30:59.204Z</time>
      </trkpt>
      <trkpt lat="45.77458" lon="4.85795">
        <ele>161</ele>
        <time>2022-01-17T17:31:03.199Z</time>
      </trkpt>
      <trkpt lat="45.77468" lon="4.858">
        <ele>160</ele>
        <time>2022-01-17T17:31:07.197Z</time>
      </trkpt>
      <trkpt lat="45.77477" lon="4.85804">
        <ele>160</ele>
        <time>2022-01-17T17:31:11.194Z</time>
      </trkpt>
      <trkpt lat="45.77488" lon="4.85808">
        <ele>159</ele>
        <time>2022-01-17T17:31:16.202Z</time>
      </trkpt>
      <trkpt lat="45.77497" lon="4.85816">
        <ele>158</ele>
        <time>2022-01-17T17:31:21.181Z</time>
      </trkpt>
      <trkpt lat="45.77506" lon="4.85819">
        <ele>157</ele>
        <time>2022-01-17T17:31:24.193Z</time>
      </trkpt>
      <trkpt lat="45.77516" lon="4.85821">
        <ele>157</ele>
        <time>2022-01-17T17:31:27.207Z</time>
      </trkpt>
      <trkpt lat="45.77527" lon="4.85823">
        <ele>157</ele>
        <time>2022-01-17T17:31:31.197Z</time>
      </trkpt>
      <trkpt lat="45.77537" lon="4.85823">
        <ele>157</ele>
        <time>2022-01-17T17:31:35.197Z</time>
      </trkpt>
      <trkpt lat="45.77547" lon="4.85824">
        <ele>157</ele>
        <time>2022-01-17T17:31:39.202Z</time>
      </trkpt>
      <trkpt lat="45.77558" lon="4.85828">
        <ele>157</ele>
        <time>2022-01-17T17:31:44.196Z</time>
      </trkpt>
      <trkpt lat="45.77569" lon="4.85828">
        <ele>158</ele>
        <time>2022-01-17T17:31:48.193Z</time>
      </trkpt>
      <trkpt lat="45.7758" lon="4.85828">
        <ele>159</ele>
        <time>2022-01-17T17:31:52.198Z</time>
      </trkpt>
      <trkpt lat="45.77589" lon="4.85826">
        <ele>160</ele>
        <time>2022-01-17T17:31:56.193Z</time>
      </trkpt>
      <trkpt lat="45.776" lon="4.85824">
        <ele>161</ele>
        <time>2022-01-17T17:32:00.194Z</time>
      </trkpt>
      <trkpt lat="45.77611" lon="4.85822">
        <ele>162</ele>
        <time>2022-01-17T17:32:04.193Z</time>
      </trkpt>
      <trkpt lat="45.77622" lon="4.85819">
        <ele>164</ele>
        <time>2022-01-17T17:32:08.193Z</time>
      </trkpt>
      <trkpt lat="45.77632" lon="4.85818">
        <ele>165</ele>
        <time>2022-01-17T17:32:12.197Z</time>
      </trkpt>
      <trkpt lat="45.77641" lon="4.85819">
        <ele>167</ele>
        <time>2022-01-17T17:32:16.191Z</time>
      </trkpt>
      <trkpt lat="45.77652" lon="4.85815">
        <ele>169</ele>
        <time>2022-01-17T17:32:22.192Z</time>
      </trkpt>
      <trkpt lat="45.77662" lon="4.85811">
        <ele>171</ele>
        <time>2022-01-17T17:32:26.192Z</time>
      </trkpt>
      <trkpt lat="45.77673" lon="4.8581">
        <ele>173</ele>
        <time>2022-01-17T17:32:30.193Z</time>
      </trkpt>
      <trkpt lat="45.77685" lon="4.85808">
        <ele>174</ele>
        <time>2022-01-17T17:32:34.198Z</time>
      </trkpt>
      <trkpt lat="45.77694" lon="4.85806">
        <ele>176</ele>
        <time>2022-01-17T17:32:37.197Z</time>
      </trkpt>
      <trkpt lat="45.77706" lon="4.85805">
        <ele>177</ele>
        <time>2022-01-17T17:32:41.194Z</time>
      </trkpt>
      <trkpt lat="45.77717" lon="4.85808">
        <ele>179</ele>
        <time>2022-01-17T17:32:45.193Z</time>
      </trkpt>
      <trkpt lat="45.77728" lon="4.85813">
        <ele>180</ele>
        <time>2022-01-17T17:32:49.194Z</time>
      </trkpt>
      <trkpt lat="45.77739" lon="4.85815">
        <ele>181</ele>
        <time>2022-01-17T17:32:53.189Z</time>
      </trkpt>
      <trkpt lat="45.7775" lon="4.85816">
        <ele>182</ele>
        <time>2022-01-17T17:32:57.194Z</time>
      </trkpt>
      <trkpt lat="45.77761" lon="4.85818">
        <ele>182</ele>
        <time>2022-01-17T17:33:01.194Z</time>
      </trkpt>
      <trkpt lat="45.77773" lon="4.85825">
        <ele>183</ele>
        <time>2022-01-17T17:33:05.191Z</time>
      </trkpt>
      <trkpt lat="45.77782" lon="4.85827">
        <ele>183</ele>
        <time>2022-01-17T17:33:09.193Z</time>
      </trkpt>
      <trkpt lat="45.77793" lon="4.85832">
        <ele>183</ele>
        <time>2022-01-17T17:33:13.195Z</time>
      </trkpt>
      <trkpt lat="45.77803" lon="4.85836">
        <ele>183</ele>
        <time>2022-01-17T17:33:17.195Z</time>
      </trkpt>
      <trkpt lat="45.77812" lon="4.85838">
        <ele>183</ele>
        <time>2022-01-17T17:33:21.195Z</time>
      </trkpt>
      <trkpt lat="45.77822" lon="4.85841">
        <ele>182</ele>
        <time>2022-01-17T17:33:25.201Z</time>
      </trkpt>
      <trkpt lat="45.77831" lon="4.85845">
        <ele>181</ele>
        <time>2022-01-17T17:33:30.194Z</time>
      </trkpt>
      <trkpt lat="45.77842" lon="4.85849">
        <ele>180</ele>
        <time>2022-01-17T17:33:35.203Z</time>
      </trkpt>
      <trkpt lat="45.77852" lon="4.85851">
        <ele>180</ele>
        <time>2022-01-17T17:33:40.202Z</time>
      </trkpt>
      <trkpt lat="45.77862" lon="4.85852">
        <ele>179</ele>
        <time>2022-01-17T17:33:44.203Z</time>
      </trkpt>
      <trkpt lat="45.77874" lon="4.8585">
        <ele>179</ele>
        <time>2022-01-17T17:33:48.196Z</time>
      </trkpt>
      <trkpt lat="45.77884" lon="4.85848">
        <ele>179</ele>
        <time>2022-01-17T17:33:52.182Z</time>
      </trkpt>
      <trkpt lat="45.77894" lon="4.85849">
        <ele>180</ele>
        <time>2022-01-17T17:33:56.190Z</time>
      </trkpt>
      <trkpt lat="45.77904" lon="4.85851">
        <ele>180</ele>
        <time>2022-01-17T17:34:00.198Z</time>
      </trkpt>
      <trkpt lat="45.77915" lon="4.85853">
        <ele>181</ele>
        <time>2022-01-17T17:34:04.195Z</time>
      </trkpt>
      <trkpt lat="45.77927" lon="4.85855">
        <ele>182</ele>
        <time>2022-01-17T17:34:09.193Z</time>
      </trkpt>
      <trkpt lat="45.77937" lon="4.85858">
        <ele>182</ele>
        <time>2022-01-17T17:34:12.193Z</time>
      </trkpt>
      <trkpt lat="45.77946" lon="4.85862">
        <ele>183</ele>
        <time>2022-01-17T17:34:15.159Z</time>
      </trkpt>
      <trkpt lat="45.77955" lon="4.85869">
        <ele>184</ele>
        <time>2022-01-17T17:34:21.201Z</time>
      </trkpt>
      <trkpt lat="45.77955" lon="4.85883">
        <ele>186</ele>
        <time>2022-01-17T17:34:27.189Z</time>
      </trkpt>
      <trkpt lat="45.77958" lon="4.85895">
        <ele>186</ele>
        <time>2022-01-17T17:34:30.190Z</time>
      </trkpt>
      <trkpt lat="45.77957" lon="4.85912">
        <ele>187</ele>
        <time>2022-01-17T17:34:33.194Z</time>
      </trkpt>
      <trkpt lat="45.77962" lon="4.85925">
        <ele>187</ele>
        <time>2022-01-17T17:34:35.193Z</time>
      </trkpt>
      <trkpt lat="45.77968" lon="4.85937">
        <ele>187</ele>
        <time>2022-01-17T17:34:37.193Z</time>
      </trkpt>
      <trkpt lat="45.77969" lon="4.85953">
        <ele>187</ele>
        <time>2022-01-17T17:34:43.195Z</time>
      </trkpt>
      <trkpt lat="45.77971" lon="4.85969">
        <ele>185</ele>
        <time>2022-01-17T17:34:50.169Z</time>
      </trkpt>
      <trkpt lat="45.77969" lon="4.85982">
        <ele>184</ele>
        <time>2022-01-17T17:34:54.191Z</time>
      </trkpt>
      <trkpt lat="45.77968" lon="4.85997">
        <ele>182</ele>
        <time>2022-01-17T17:34:59.191Z</time>
      </trkpt>
      <trkpt lat="45.77967" lon="4.86013">
        <ele>180</ele>
        <time>2022-01-17T17:35:04.190Z</time>
      </trkpt>
      <trkpt lat="45.77964" lon="4.86026">
        <ele>178</ele>
        <time>2022-01-17T17:35:09.196Z</time>
      </trkpt>
      <trkpt lat="45.77965" lon="4.8604">
        <ele>175</ele>
        <time>2022-01-17T17:35:14.166Z</time>
      </trkpt>
      <trkpt lat="45.77962" lon="4.86054">
        <ele>173</ele>
        <time>2022-01-17T17:35:19.166Z</time>
      </trkpt>
      <trkpt lat="45.77961" lon="4.86069">
        <ele>170</ele>
        <time>2022-01-17T17:35:24.199Z</time>
      </trkpt>
      <trkpt lat="45.77961" lon="4.86084">
        <ele>168</ele>
        <time>2022-01-17T17:35:28.201Z</time>
      </trkpt>
      <trkpt lat="45.77961" lon="4.86097">
        <ele>166</ele>
        <time>2022-01-17T17:35:32.198Z</time>
      </trkpt>
      <trkpt lat="45.77961" lon="4.86113">
        <ele>164</ele>
        <time>2022-01-17T17:35:37.194Z</time>
      </trkpt>
      <trkpt lat="45.7796" lon="4.86128">
        <ele>163</ele>
        <time>2022-01-17T17:35:42.192Z</time>
      </trkpt>
      <trkpt lat="45.7796" lon="4.86143">
        <ele>161</ele>
        <time>2022-01-17T17:35:47.204Z</time>
      </trkpt>
      <trkpt lat="45.77957" lon="4.86158">
        <ele>160</ele>
        <time>2022-01-17T17:35:51.192Z</time>
      </trkpt>
      <trkpt lat="45.77955" lon="4.86172">
        <ele>160</ele>
        <time>2022-01-17T17:35:55.196Z</time>
      </trkpt>
      <trkpt lat="45.77954" lon="4.86187">
        <ele>160</ele>
        <time>2022-01-17T17:35:59.198Z</time>
      </trkpt>
      <trkpt lat="45.77952" lon="4.862">
        <ele>160</ele>
        <time>2022-01-17T17:36:04.190Z</time>
      </trkpt>
      <trkpt lat="45.7795" lon="4.86213">
        <ele>160</ele>
        <time>2022-01-17T17:36:08.193Z</time>
      </trkpt>
      <trkpt lat="45.77949" lon="4.86229">
        <ele>160</ele>
        <time>2022-01-17T17:36:13.184Z</time>
      </trkpt>
      <trkpt lat="45.77948" lon="4.86242">
        <ele>161</ele>
        <time>2022-01-17T17:36:17.194Z</time>
      </trkpt>
      <trkpt lat="45.77947" lon="4.86255">
        <ele>162</ele>
        <time>2022-01-17T17:36:21.205Z</time>
      </trkpt>
      <trkpt lat="45.77944" lon="4.86268">
        <ele>162</ele>
        <time>2022-01-17T17:36:26.198Z</time>
      </trkpt>
      <trkpt lat="45.7794" lon="4.86283">
        <ele>164</ele>
        <time>2022-01-17T17:36:32.196Z</time>
      </trkpt>
      <trkpt lat="45.77938" lon="4.86296">
        <ele>165</ele>
        <time>2022-01-17T17:36:38.187Z</time>
      </trkpt>
      <trkpt lat="45.77938" lon="4.8631">
        <ele>166</ele>
        <time>2022-01-17T17:36:43.174Z</time>
      </trkpt>
      <trkpt lat="45.77939" lon="4.86325">
        <ele>167</ele>
        <time>2022-01-17T17:36:47.193Z</time>
      </trkpt>
      <trkpt lat="45.77937" lon="4.86339">
        <ele>168</ele>
        <time>2022-01-17T17:36:51.196Z</time>
      </trkpt>
      <trkpt lat="45.77934" lon="4.86352">
        <ele>168</ele>
        <time>2022-01-17T17:36:55.195Z</time>
      </trkpt>
      <trkpt lat="45.77932" lon="4.86366">
        <ele>168</ele>
        <time>2022-01-17T17:36:59.196Z</time>
      </trkpt>
      <trkpt lat="45.77932" lon="4.86382">
        <ele>169</ele>
        <time>2022-01-17T17:37:04.194Z</time>
      </trkpt>
      <trkpt lat="45.77932" lon="4.86395">
        <ele>169</ele>
        <time>2022-01-17T17:37:08.193Z</time>
      </trkpt>
      <trkpt lat="45.7793" lon="4.86409">
        <ele>169</ele>
        <time>2022-01-17T17:37:12.195Z</time>
      </trkpt>
      <trkpt lat="45.77928" lon="4.86424">
        <ele>169</ele>
        <time>2022-01-17T17:37:16.192Z</time>
      </trkpt>
      <trkpt lat="45.77925" lon="4.86438">
        <ele>169</ele>
        <time>2022-01-17T17:37:19.196Z</time>
      </trkpt>
      <trkpt lat="45.77924" lon="4.86453">
        <ele>169</ele>
        <time>2022-01-17T17:37:23.194Z</time>
      </trkpt>
      <trkpt lat="45.77924" lon="4.86469">
        <ele>169</ele>
        <time>2022-01-17T17:37:27.195Z</time>
      </trkpt>
      <trkpt lat="45.77923" lon="4.86482">
        <ele>169</ele>
        <time>2022-01-17T17:37:31.197Z</time>
      </trkpt>
      <trkpt lat="45.77922" lon="4.86497">
        <ele>169</ele>
        <time>2022-01-17T17:37:36.200Z</time>
      </trkpt>
      <trkpt lat="45.77923" lon="4.86501">
        <ele>171</ele>
        <time>2022-01-17T17:38:02.198Z</time>
      </trkpt>
      <trkpt lat="45.77923" lon="4.86501">
        <ele>171</ele>
        <time>2022-01-17T17:38:14.193Z</time>
      </trkpt>
      <trkpt lat="45.77917" lon="4.86535">
        <ele>173</ele>
        <time>2022-01-17T17:38:15.200Z</time>
      </trkpt>
      <trkpt lat="45.77914" lon="4.86549">
        <ele>174</ele>
        <time>2022-01-17T17:38:19.190Z</time>
      </trkpt>
      <trkpt lat="45.77912" lon="4.86565">
        <ele>174</ele>
        <time>2022-01-17T17:38:23.196Z</time>
      </trkpt>
      <trkpt lat="45.77911" lon="4.86581">
        <ele>175</ele>
        <time>2022-01-17T17:38:27.196Z</time>
      </trkpt>
      <trkpt lat="45.77909" lon="4.86595">
        <ele>176</ele>
        <time>2022-01-17T17:38:31.204Z</time>
      </trkpt>
      <trkpt lat="45.77908" lon="4.86609">
        <ele>176</ele>
        <time>2022-01-17T17:38:35.199Z</time>
      </trkpt>
      <trkpt lat="45.77909" lon="4.86623">
        <ele>176</ele>
        <time>2022-01-17T17:38:38.195Z</time>
      </trkpt>
      <trkpt lat="45.77908" lon="4.86639">
        <ele>177</ele>
        <time>2022-01-17T17:38:42.200Z</time>
      </trkpt>
      <trkpt lat="45.77908" lon="4.86653">
        <ele>177</ele>
        <time>2022-01-17T17:38:45.167Z</time>
      </trkpt>
      <trkpt lat="45.77908" lon="4.86667">
        <ele>176</ele>
        <time>2022-01-17T17:38:49.192Z</time>
      </trkpt>
      <trkpt lat="45.77908" lon="4.86685">
        <ele>176</ele>
        <time>2022-01-17T17:38:53.197Z</time>
      </trkpt>
      <trkpt lat="45.77906" lon="4.867">
        <ele>175</ele>
        <time>2022-01-17T17:38:57.195Z</time>
      </trkpt>
      <trkpt lat="45.77904" lon="4.86716">
        <ele>174</ele>
        <time>2022-01-17T17:39:01.196Z</time>
      </trkpt>
      <trkpt lat="45.77903" lon="4.8673">
        <ele>173</ele>
        <time>2022-01-17T17:39:05.196Z</time>
      </trkpt>
      <trkpt lat="45.779" lon="4.86744">
        <ele>171</ele>
        <time>2022-01-17T17:39:11.156Z</time>
      </trkpt>
      <trkpt lat="45.77904" lon="4.8676">
        <ele>170</ele>
        <time>2022-01-17T17:39:16.168Z</time>
      </trkpt>
      <trkpt lat="45.77903" lon="4.86774">
        <ele>169</ele>
        <time>2022-01-17T17:39:20.205Z</time>
      </trkpt>
      <trkpt lat="45.77905" lon="4.86789">
        <ele>168</ele>
        <time>2022-01-17T17:39:24.197Z</time>
      </trkpt>
      <trkpt lat="45.77903" lon="4.86804">
        <ele>167</ele>
        <time>2022-01-17T17:39:28.202Z</time>
      </trkpt>
      <trkpt lat="45.77901" lon="4.86818">
        <ele>166</ele>
        <time>2022-01-17T17:39:32.201Z</time>
      </trkpt>
      <trkpt lat="45.77902" lon="4.86833">
        <ele>165</ele>
        <time>2022-01-17T17:39:36.193Z</time>
      </trkpt>
      <trkpt lat="45.77902" lon="4.86847">
        <ele>165</ele>
        <time>2022-01-17T17:39:40.196Z</time>
      </trkpt>
      <trkpt lat="45.77901" lon="4.8686">
        <ele>165</ele>
        <time>2022-01-17T17:39:44.195Z</time>
      </trkpt>
      <trkpt lat="45.77898" lon="4.86875">
        <ele>164</ele>
        <time>2022-01-17T17:39:48.214Z</time>
      </trkpt>
      <trkpt lat="45.77897" lon="4.86887">
        <ele>164</ele>
        <time>2022-01-17T17:39:51.184Z</time>
      </trkpt>
      <trkpt lat="45.77896" lon="4.86901">
        <ele>164</ele>
        <time>2022-01-17T17:39:54.200Z</time>
      </trkpt>
      <trkpt lat="45.77896" lon="4.86916">
        <ele>164</ele>
        <time>2022-01-17T17:39:58.203Z</time>
      </trkpt>
      <trkpt lat="45.77896" lon="4.86931">
        <ele>164</ele>
        <time>2022-01-17T17:40:02.197Z</time>
      </trkpt>
      <trkpt lat="45.77897" lon="4.86947">
        <ele>164</ele>
        <time>2022-01-17T17:40:06.200Z</time>
      </trkpt>
      <trkpt lat="45.77897" lon="4.8696">
        <ele>165</ele>
        <time>2022-01-17T17:40:10.184Z</time>
      </trkpt>
      <trkpt lat="45.77898" lon="4.86976">
        <ele>165</ele>
        <time>2022-01-17T17:40:14.200Z</time>
      </trkpt>
      <trkpt lat="45.779" lon="4.8699">
        <ele>166</ele>
        <time>2022-01-17T17:40:18.194Z</time>
      </trkpt>
      <trkpt lat="45.77899" lon="4.87003">
        <ele>167</ele>
        <time>2022-01-17T17:40:22.204Z</time>
      </trkpt>
      <trkpt lat="45.77897" lon="4.87017">
        <ele>168</ele>
        <time>2022-01-17T17:40:26.191Z</time>
      </trkpt>
      <trkpt lat="45.77901" lon="4.87032">
        <ele>168</ele>
        <time>2022-01-17T17:40:30.197Z</time>
      </trkpt>
      <trkpt lat="45.77903" lon="4.87047">
        <ele>168</ele>
        <time>2022-01-17T17:40:34.193Z</time>
      </trkpt>
      <trkpt lat="45.77904" lon="4.87063">
        <ele>168</ele>
        <time>2022-01-17T17:40:38.195Z</time>
      </trkpt>
      <trkpt lat="45.77905" lon="4.87079">
        <ele>168</ele>
        <time>2022-01-17T17:40:42.196Z</time>
      </trkpt>
      <trkpt lat="45.77906" lon="4.87094">
        <ele>168</ele>
        <time>2022-01-17T17:40:46.197Z</time>
      </trkpt>
      <trkpt lat="45.77907" lon="4.87108">
        <ele>168</ele>
        <time>2022-01-17T17:40:50.194Z</time>
      </trkpt>
      <trkpt lat="45.77908" lon="4.87122">
        <ele>168</ele>
        <time>2022-01-17T17:40:54.187Z</time>
      </trkpt>
      <trkpt lat="45.7791" lon="4.87135">
        <ele>167</ele>
        <time>2022-01-17T17:40:58.192Z</time>
      </trkpt>
      <trkpt lat="45.77911" lon="4.87151">
        <ele>167</ele>
        <time>2022-01-17T17:41:02.182Z</time>
      </trkpt>
      <trkpt lat="45.77912" lon="4.87165">
        <ele>167</ele>
        <time>2022-01-17T17:41:06.193Z</time>
      </trkpt>
      <trkpt lat="45.77913" lon="4.87179">
        <ele>167</ele>
        <time>2022-01-17T17:41:10.198Z</time>
      </trkpt>
      <trkpt lat="45.77914" lon="4.87195">
        <ele>167</ele>
        <time>2022-01-17T17:41:15.200Z</time>
      </trkpt>
      <trkpt lat="45.77918" lon="4.8721">
        <ele>168</ele>
        <time>2022-01-17T17:41:20.187Z</time>
      </trkpt>
      <trkpt lat="45.77919" lon="4.87225">
        <ele>168</ele>
        <time>2022-01-17T17:41:24.166Z</time>
      </trkpt>
      <trkpt lat="45.77919" lon="4.8724">
        <ele>168</ele>
        <time>2022-01-17T17:41:28.195Z</time>
      </trkpt>
      <trkpt lat="45.77921" lon="4.87253">
        <ele>169</ele>
        <time>2022-01-17T17:41:32.173Z</time>
      </trkpt>
      <trkpt lat="45.77923" lon="4.87266">
        <ele>169</ele>
        <time>2022-01-17T17:41:36.198Z</time>
      </trkpt>
      <trkpt lat="45.77925" lon="4.87279">
        <ele>169</ele>
        <time>2022-01-17T17:41:39.196Z</time>
      </trkpt>
      <trkpt lat="45.77926" lon="4.87294">
        <ele>170</ele>
        <time>2022-01-17T17:41:43.197Z</time>
      </trkpt>
      <trkpt lat="45.77927" lon="4.87308">
        <ele>170</ele>
        <time>2022-01-17T17:41:47.195Z</time>
      </trkpt>
      <trkpt lat="45.77929" lon="4.87322">
        <ele>170</ele>
        <time>2022-01-17T17:41:52.202Z</time>
      </trkpt>
      <trkpt lat="45.77932" lon="4.87339">
        <ele>171</ele>
        <time>2022-01-17T17:41:56.197Z</time>
      </trkpt>
      <trkpt lat="45.77933" lon="4.87353">
        <ele>171</ele>
        <time>2022-01-17T17:41:59.188Z</time>
      </trkpt>
      <trkpt lat="45.77937" lon="4.87368">
        <ele>172</ele>
        <time>2022-01-17T17:42:02.194Z</time>
      </trkpt>
      <trkpt lat="45.77941" lon="4.87386">
        <ele>173</ele>
        <time>2022-01-17T17:42:06.198Z</time>
      </trkpt>
      <trkpt lat="45.77947" lon="4.87402">
        <ele>173</ele>
        <time>2022-01-17T17:42:10.193Z</time>
      </trkpt>
      <trkpt lat="45.77948" lon="4.87418">
        <ele>174</ele>
        <time>2022-01-17T17:42:14.200Z</time>
      </trkpt>
      <trkpt lat="45.77951" lon="4.87437">
        <ele>174</ele>
        <time>2022-01-17T17:42:19.198Z</time>
      </trkpt>
      <trkpt lat="45.77956" lon="4.87453">
        <ele>174</ele>
        <time>2022-01-17T17:42:24.204Z</time>
      </trkpt>
      <trkpt lat="45.77959" lon="4.87469">
        <ele>174</ele>
        <time>2022-01-17T17:42:29.196Z</time>
      </trkpt>
      <trkpt lat="45.77961" lon="4.87482">
        <ele>174</ele>
        <time>2022-01-17T17:42:33.192Z</time>
      </trkpt>
      <trkpt lat="45.77964" lon="4.87495">
        <ele>173</ele>
        <time>2022-01-17T17:42:37.203Z</time>
      </trkpt>
      <trkpt lat="45.77968" lon="4.87508">
        <ele>173</ele>
        <time>2022-01-17T17:42:40.194Z</time>
      </trkpt>
      <trkpt lat="45.77977" lon="4.87517">
        <ele>172</ele>
        <time>2022-01-17T17:42:44.195Z</time>
      </trkpt>
      <trkpt lat="45.77987" lon="4.87524">
        <ele>171</ele>
        <time>2022-01-17T17:42:48.205Z</time>
      </trkpt>
      <trkpt lat="45.77997" lon="4.87527">
        <ele>170</ele>
        <time>2022-01-17T17:42:53.158Z</time>
      </trkpt>
      <trkpt lat="45.78006" lon="4.87528">
        <ele>170</ele>
        <time>2022-01-17T17:42:58.192Z</time>
      </trkpt>
      <trkpt lat="45.78016" lon="4.87535">
        <ele>169</ele>
        <time>2022-01-17T17:43:02.200Z</time>
      </trkpt>
      <trkpt lat="45.78024" lon="4.87543">
        <ele>170</ele>
        <time>2022-01-17T17:43:05.196Z</time>
      </trkpt>
      <trkpt lat="45.78035" lon="4.87549">
        <ele>170</ele>
        <time>2022-01-17T17:43:09.204Z</time>
      </trkpt>
      <trkpt lat="45.78045" lon="4.87555">
        <ele>171</ele>
        <time>2022-01-17T17:43:12.194Z</time>
      </trkpt>
      <trkpt lat="45.78056" lon="4.87563">
        <ele>171</ele>
        <time>2022-01-17T17:43:16.199Z</time>
      </trkpt>
      <trkpt lat="45.78067" lon="4.8757">
        <ele>172</ele>
        <time>2022-01-17T17:43:20.194Z</time>
      </trkpt>
      <trkpt lat="45.78079" lon="4.87576">
        <ele>172</ele>
        <time>2022-01-17T17:43:24.197Z</time>
      </trkpt>
      <trkpt lat="45.7809" lon="4.8758">
        <ele>172</ele>
        <time>2022-01-17T17:43:28.197Z</time>
      </trkpt>
      <trkpt lat="45.78102" lon="4.87585">
        <ele>173</ele>
        <time>2022-01-17T17:43:33.198Z</time>
      </trkpt>
      <trkpt lat="45.78114" lon="4.87591">
        <ele>173</ele>
        <time>2022-01-17T17:43:38.194Z</time>
      </trkpt>
      <trkpt lat="45.78125" lon="4.876">
        <ele>173</ele>
        <time>2022-01-17T17:43:42.155Z</time>
      </trkpt>
      <trkpt lat="45.78137" lon="4.87604">
        <ele>173</ele>
        <time>2022-01-17T17:43:46.184Z</time>
      </trkpt>
      <trkpt lat="45.78149" lon="4.87605">
        <ele>172</ele>
        <time>2022-01-17T17:43:49.186Z</time>
      </trkpt>
      <trkpt lat="45.7816" lon="4.87602">
        <ele>172</ele>
        <time>2022-01-17T17:43:51.196Z</time>
      </trkpt>
      <trkpt lat="45.78165" lon="4.87618">
        <ele>171</ele>
        <time>2022-01-17T17:43:57.196Z</time>
      </trkpt>
      <trkpt lat="45.78175" lon="4.8763">
        <ele>170</ele>
        <time>2022-01-17T17:44:02.184Z</time>
      </trkpt>
      <trkpt lat="45.78185" lon="4.87638">
        <ele>170</ele>
        <time>2022-01-17T17:44:06.188Z</time>
      </trkpt>
      <trkpt lat="45.78192" lon="4.8765">
        <ele>168</ele>
        <time>2022-01-17T17:44:11.196Z</time>
      </trkpt>
      <trkpt lat="45.78201" lon="4.87657">
        <ele>167</ele>
        <time>2022-01-17T17:44:16.182Z</time>
      </trkpt>
      <trkpt lat="45.78206" lon="4.87669">
        <ele>166</ele>
        <time>2022-01-17T17:44:19.204Z</time>
      </trkpt>
      <trkpt lat="45.78212" lon="4.87681">
        <ele>166</ele>
        <time>2022-01-17T17:44:22.202Z</time>
      </trkpt>
      <trkpt lat="45.78217" lon="4.87695">
        <ele>165</ele>
        <time>2022-01-17T17:44:26.182Z</time>
      </trkpt>
      <trkpt lat="45.78222" lon="4.87708">
        <ele>164</ele>
        <time>2022-01-17T17:44:30.213Z</time>
      </trkpt>
      <trkpt lat="45.78226" lon="4.8772">
        <ele>164</ele>
        <time>2022-01-17T17:44:34.199Z</time>
      </trkpt>
      <trkpt lat="45.78232" lon="4.87731">
        <ele>164</ele>
        <time>2022-01-17T17:44:39.203Z</time>
      </trkpt>
      <trkpt lat="45.78241" lon="4.87729">
        <ele>165</ele>
        <time>2022-01-17T17:44:44.199Z</time>
      </trkpt>
      <trkpt lat="45.7825" lon="4.87727">
        <ele>166</ele>
        <time>2022-01-17T17:44:48.198Z</time>
      </trkpt>
      <trkpt lat="45.78259" lon="4.87734">
        <ele>167</ele>
        <time>2022-01-17T17:44:52.186Z</time>
      </trkpt>
      <trkpt lat="45.78264" lon="4.87748">
        <ele>168</ele>
        <time>2022-01-17T17:44:56.189Z</time>
      </trkpt>
      <trkpt lat="45.78269" lon="4.87762">
        <ele>169</ele>
        <time>2022-01-17T17:45:00.198Z</time>
      </trkpt>
      <trkpt lat="45.78273" lon="4.87777">
        <ele>170</ele>
        <time>2022-01-17T17:45:04.203Z</time>
      </trkpt>
      <trkpt lat="45.78276" lon="4.8779">
        <ele>171</ele>
        <time>2022-01-17T17:45:07.197Z</time>
      </trkpt>
      <trkpt lat="45.7828" lon="4.87805">
        <ele>172</ele>
        <time>2022-01-17T17:45:11.185Z</time>
      </trkpt>
      <trkpt lat="45.78283" lon="4.87822">
        <ele>172</ele>
        <time>2022-01-17T17:45:15.196Z</time>
      </trkpt>
      <trkpt lat="45.78286" lon="4.87839">
        <ele>172</ele>
        <time>2022-01-17T17:45:19.181Z</time>
      </trkpt>
      <trkpt lat="45.78289" lon="4.87854">
        <ele>172</ele>
        <time>2022-01-17T17:45:23.201Z</time>
      </trkpt>
      <trkpt lat="45.78293" lon="4.87869">
        <ele>172</ele>
        <time>2022-01-17T17:45:27.201Z</time>
      </trkpt>
      <trkpt lat="45.78296" lon="4.87885">
        <ele>172</ele>
        <time>2022-01-17T17:45:31.213Z</time>
      </trkpt>
      <trkpt lat="45.78299" lon="4.87901">
        <ele>171</ele>
        <time>2022-01-17T17:45:35.201Z</time>
      </trkpt>
      <trkpt lat="45.78299" lon="4.87915">
        <ele>171</ele>
        <time>2022-01-17T17:45:39.200Z</time>
      </trkpt>
      <trkpt lat="45.78295" lon="4.8793">
        <ele>171</ele>
        <time>2022-01-17T17:45:43.186Z</time>
      </trkpt>
      <trkpt lat="45.78293" lon="4.87947">
        <ele>170</ele>
        <time>2022-01-17T17:45:47.198Z</time>
      </trkpt>
      <trkpt lat="45.78294" lon="4.87964">
        <ele>170</ele>
        <time>2022-01-17T17:45:50.199Z</time>
      </trkpt>
      <trkpt lat="45.78298" lon="4.87981">
        <ele>170</ele>
        <time>2022-01-17T17:45:54.190Z</time>
      </trkpt>
      <trkpt lat="45.783" lon="4.87996">
        <ele>169</ele>
        <time>2022-01-17T17:45:58.196Z</time>
      </trkpt>
      <trkpt lat="45.78303" lon="4.88012">
        <ele>170</ele>
        <time>2022-01-17T17:46:02.179Z</time>
      </trkpt>
      <trkpt lat="45.78306" lon="4.88028">
        <ele>170</ele>
        <time>2022-01-17T17:46:06.195Z</time>
      </trkpt>
      <trkpt lat="45.7831" lon="4.88043">
        <ele>170</ele>
        <time>2022-01-17T17:46:10.200Z</time>
      </trkpt>
      <trkpt lat="45.7832" lon="4.88051">
        <ele>171</ele>
        <time>2022-01-17T17:46:15.196Z</time>
      </trkpt>
      <trkpt lat="45.7833" lon="4.88052">
        <ele>172</ele>
        <time>2022-01-17T17:46:19.206Z</time>
      </trkpt>
      <trkpt lat="45.78339" lon="4.88051">
        <ele>173</ele>
        <time>2022-01-17T17:46:23.177Z</time>
      </trkpt>
      <trkpt lat="45.78351" lon="4.88049">
        <ele>174</ele>
        <time>2022-01-17T17:46:27.201Z</time>
      </trkpt>
      <trkpt lat="45.7836" lon="4.88049">
        <ele>175</ele>
        <time>2022-01-17T17:46:30.181Z</time>
      </trkpt>
      <trkpt lat="45.78371" lon="4.88053">
        <ele>176</ele>
        <time>2022-01-17T17:46:33.171Z</time>
      </trkpt>
      <trkpt lat="45.78381" lon="4.88049">
        <ele>177</ele>
        <time>2022-01-17T17:46:37.196Z</time>
      </trkpt>
      <trkpt lat="45.78385" lon="4.88035">
        <ele>178</ele>
        <time>2022-01-17T17:46:41.169Z</time>
      </trkpt>
      <trkpt lat="45.78388" lon="4.88019">
        <ele>179</ele>
        <time>2022-01-17T17:46:45.186Z</time>
      </trkpt>
      <trkpt lat="45.7839" lon="4.88">
        <ele>179</ele>
        <time>2022-01-17T17:46:49.177Z</time>
      </trkpt>
      <trkpt lat="45.78391" lon="4.87984">
        <ele>178</ele>
        <time>2022-01-17T17:46:53.160Z</time>
      </trkpt>
      <trkpt lat="45.78394" lon="4.87967">
        <ele>177</ele>
        <time>2022-01-17T17:46:57.196Z</time>
      </trkpt>
      <trkpt lat="45.78394" lon="4.87953">
        <ele>176</ele>
        <time>2022-01-17T17:47:01.195Z</time>
      </trkpt>
      <trkpt lat="45.78393" lon="4.87942">
        <ele>174</ele>
        <time>2022-01-17T17:47:05.173Z</time>
      </trkpt>
      <trkpt lat="45.78393" lon="4.87942">
        <ele>172</ele>
        <time>2022-01-17T17:47:06.051Z</time>
      </trkpt>
    </trkseg>
  </trk>
</gpx>